createdAt,value
2018-11-12T00:00:15.184Z,22.30
2018-11-12T00:02:45.004Z,21.77
2018-11-12T00:05:13.818Z,23.20
2018-11-12T00:07:42.274Z,21.03
2018-11-12T00:10:10.659Z,22.37
2018-11-12T00:12:39.462Z,24.03
2018-11-12T00:15:08.711Z,21.63
2018-11-12T00:17:37.537Z,23.47
2018-11-12T00:20:06.498Z,22.00
2018-11-12T00:22:35.068Z,23.93
2018-11-12T00:25:03.380Z,22.03
2018-11-12T00:27:31.696Z,21.20
2018-11-12T00:30:00.012Z,21.03
2018-11-12T00:32:28.338Z,22.23
2018-11-12T00:34:56.572Z,21.50
2018-11-12T00:37:25.265Z,21.20
2018-11-12T00:39:54.133Z,20.53
2018-11-12T00:42:22.388Z,21.07
2018-11-12T00:44:50.661Z,20.73
2018-11-12T00:47:19.227Z,20.20
2018-11-12T00:49:47.875Z,20.77
2018-11-12T00:52:16.151Z,21.73
2018-11-12T00:54:44.383Z,21.33
2018-11-12T00:57:13.274Z,22.10
2018-11-12T00:59:42.213Z,21.30
2018-11-12T01:02:10.834Z,21.10
2018-11-12T01:04:40.911Z,19.97
2018-11-12T01:07:09.167Z,20.67
2018-11-12T01:09:37.621Z,21.43
2018-11-12T01:12:06.095Z,20.10
2018-11-12T01:14:34.521Z,20.80
2018-11-12T01:17:03.237Z,20.27
2018-11-12T01:19:31.484Z,20.77
2018-11-12T01:21:59.706Z,20.13
2018-11-12T01:24:28.037Z,20.47
2018-11-12T01:26:56.316Z,19.67
2018-11-12T01:29:24.598Z,20.87
2018-11-12T01:31:52.894Z,19.47
2018-11-12T01:34:21.751Z,20.07
2018-11-12T01:36:50.442Z,20.03
2018-11-12T01:39:18.707Z,20.53
2018-11-12T01:41:47.775Z,19.23
2018-11-12T01:44:16.045Z,20.23
2018-11-12T01:50:15.975Z,19.77
2018-11-12T01:52:45.184Z,20.03
2018-11-12T01:55:14.543Z,20.33
2018-11-12T01:57:43.146Z,21.53
2018-11-12T02:00:14.411Z,20.57
2018-11-12T02:02:43.754Z,20.30
2018-11-12T02:05:12.432Z,20.00
2018-11-12T02:07:40.716Z,19.83
2018-11-12T02:10:10.391Z,22.07
2018-11-12T02:12:38.922Z,18.33
2018-11-12T02:15:09.391Z,20.70
2018-11-12T02:17:38.362Z,18.53
2018-11-12T02:20:08.081Z,18.10
2018-11-12T02:22:36.575Z,18.93
2018-11-12T02:25:05.170Z,18.13
2018-11-12T02:27:33.426Z,17.83
2018-11-12T02:30:01.673Z,18.00
2018-11-12T02:32:30.436Z,18.50
2018-11-12T02:34:58.679Z,18.70
2018-11-12T02:37:27.289Z,18.03
2018-11-12T02:39:56.184Z,20.20
2018-11-12T02:42:24.460Z,17.33
2018-11-12T02:44:53.120Z,17.77
2018-11-12T02:47:21.374Z,18.70
2018-11-12T02:49:49.601Z,17.60
2018-11-12T02:52:17.891Z,16.70
2018-11-12T02:54:46.275Z,16.93
2018-11-12T02:57:14.568Z,17.50
2018-11-12T02:59:42.809Z,17.60
2018-11-12T03:02:11.375Z,16.93
2018-11-12T03:04:40.091Z,17.50
2018-11-12T03:07:08.332Z,18.63
2018-11-12T03:09:36.564Z,18.00
2018-11-12T03:12:05.007Z,18.20
2018-11-12T03:14:33.268Z,17.33
2018-11-12T03:17:01.923Z,20.90
2018-11-12T03:19:30.193Z,24.13
2018-11-12T03:21:58.971Z,21.23
2018-11-12T03:24:27.762Z,25.13
2018-11-12T03:26:56.049Z,23.60
2018-11-12T03:29:24.300Z,21.07
2018-11-12T03:31:52.553Z,30.07
2018-11-12T03:34:20.800Z,26.83
2018-11-12T03:36:49.858Z,19.30
2018-11-12T03:39:18.127Z,16.63
2018-11-12T03:41:46.615Z,15.80
2018-11-12T03:44:14.851Z,18.10
2018-11-12T03:46:43.110Z,20.00
2018-11-12T03:49:11.371Z,15.30
2018-11-12T03:51:39.627Z,22.77
2018-11-12T03:54:08.447Z,22.93
2018-11-12T03:56:36.724Z,20.97
2018-11-12T03:59:05.424Z,20.47
2018-11-12T04:01:39.147Z,17.03
2018-11-12T04:04:07.754Z,19.87
2018-11-12T04:06:36.028Z,17.30
2018-11-12T04:09:06.046Z,19.63
2018-11-12T04:11:34.794Z,15.23
2018-11-12T04:14:03.050Z,17.53
2018-11-12T04:16:32.030Z,21.23
2018-11-12T04:19:00.911Z,16.93
2018-11-12T04:21:29.138Z,21.50
2018-11-12T04:23:57.391Z,25.57
2018-11-12T04:26:25.726Z,16.40
2018-11-12T04:28:53.979Z,15.67
2018-11-12T04:31:22.269Z,16.33
2018-11-12T04:33:50.520Z,17.07
2018-11-12T04:36:18.772Z,14.40
2018-11-12T04:38:47.862Z,17.67
2018-11-12T04:41:16.551Z,18.00
2018-11-12T04:43:44.798Z,16.93
2018-11-12T04:46:13.607Z,16.13
2018-11-12T04:48:41.862Z,14.80
2018-11-12T04:51:10.117Z,15.70
2018-11-12T04:53:38.404Z,14.57
2018-11-12T04:56:06.829Z,13.97
2018-11-12T04:58:35.213Z,14.80
2018-11-12T05:01:04.109Z,15.37
2018-11-12T05:03:33.003Z,15.10
2018-11-12T05:06:01.620Z,17.77
2018-11-12T05:08:29.942Z,16.10
2018-11-12T05:10:58.217Z,13.77
2018-11-12T05:13:26.519Z,15.37
2018-11-12T05:15:54.795Z,13.43
2018-11-12T05:18:23.464Z,13.10
2018-11-12T05:20:51.448Z,14.30
2018-11-12T05:23:19.687Z,12.53
2018-11-12T05:25:47.968Z,12.80
2018-11-12T05:28:16.215Z,16.03
2018-11-12T05:30:44.532Z,14.30
2018-11-12T05:33:13.309Z,15.50
2018-11-12T05:35:41.567Z,13.73
2018-11-12T05:38:10.177Z,14.33
2018-11-12T05:40:38.705Z,16.17
2018-11-12T05:43:07.663Z,15.50
2018-11-12T05:45:36.040Z,18.33
2018-11-12T05:48:04.406Z,17.93
2018-11-12T05:50:32.686Z,16.70
2018-11-12T05:53:02.199Z,15.77
2018-11-12T05:55:31.010Z,14.87
2018-11-12T05:58:00.373Z,15.43
2018-11-12T06:00:31.315Z,15.40
2018-11-12T06:02:59.992Z,19.23
2018-11-12T06:05:28.643Z,18.77
2018-11-12T06:07:56.995Z,22.00
2018-11-12T06:10:26.628Z,17.60
2018-11-12T06:12:55.025Z,20.27
2018-11-12T06:15:23.318Z,19.37
2018-11-12T06:17:52.535Z,18.00
2018-11-12T06:20:22.856Z,19.07
2018-11-12T06:22:51.264Z,21.10
2018-11-12T06:25:20.907Z,18.70
2018-11-12T06:27:52.904Z,18.30
2018-11-12T06:30:22.420Z,17.67
2018-11-12T06:32:50.800Z,21.27
2018-11-12T06:35:19.566Z,19.30
2018-11-12T06:37:49.082Z,21.07
2018-11-12T06:40:18.701Z,24.10
2018-11-12T06:42:47.630Z,21.03
2018-11-12T06:45:22.099Z,19.13
2018-11-12T06:47:51.864Z,21.50
2018-11-12T06:50:21.322Z,22.17
2018-11-12T06:52:49.695Z,24.43
2018-11-12T06:55:19.496Z,21.73
2018-11-12T06:57:48.251Z,21.43
2018-11-12T07:00:18.775Z,21.27
2018-11-12T07:02:47.707Z,20.60
2018-11-12T07:05:16.265Z,25.73
2018-11-12T07:07:44.573Z,21.07
2018-11-12T07:10:14.102Z,23.50
2018-11-12T07:12:43.226Z,21.60
2018-11-12T07:15:16.562Z,22.10
2018-11-12T07:17:45.211Z,21.90
2018-11-12T07:20:15.580Z,21.50
2018-11-12T07:22:44.167Z,21.17
2018-11-12T07:25:13.263Z,20.60
2018-11-12T07:27:41.429Z,21.73
2018-11-12T07:30:12.831Z,23.13
2018-11-12T07:32:41.107Z,26.10
2018-11-12T07:35:10.843Z,21.27
2018-11-12T07:37:39.651Z,22.13
2018-11-12T07:40:09.038Z,21.17
2018-11-12T07:42:38.112Z,22.13
2018-11-12T07:45:07.946Z,21.57
2018-11-12T07:47:36.193Z,21.90
2018-11-12T07:50:06.244Z,23.60
2018-11-12T07:52:35.029Z,24.33
2018-11-12T07:55:03.408Z,26.20
2018-11-12T07:57:31.682Z,24.43
2018-11-12T07:59:59.965Z,24.97
2018-11-12T08:02:28.722Z,23.80
2018-11-12T08:04:57.191Z,26.40
2018-11-12T08:07:25.407Z,25.00
2018-11-12T08:09:53.675Z,22.50
2018-11-12T08:12:21.960Z,23.30
2018-11-12T08:14:50.244Z,24.17
2018-11-12T08:17:19.116Z,26.83
2018-11-12T08:19:47.300Z,24.10
2018-11-12T08:22:15.567Z,24.03
2018-11-12T08:24:44.033Z,22.70
2018-11-12T08:29:47.876Z,22.27
2018-11-12T08:32:16.140Z,22.00
2018-11-12T08:34:44.419Z,20.37
2018-11-12T08:37:13.123Z,22.00
2018-11-12T08:39:41.497Z,21.13
2018-11-12T08:42:09.623Z,21.23
2018-11-12T08:44:38.136Z,22.07
2018-11-12T08:47:06.391Z,19.50
2018-11-12T08:49:35.571Z,19.47
2018-11-12T08:52:03.780Z,19.47
2018-11-12T08:54:32.140Z,19.70
2018-11-12T08:57:00.343Z,20.20
2018-11-12T08:59:29.048Z,19.60
2018-11-12T09:01:57.702Z,19.10
2018-11-12T09:04:26.134Z,18.47
2018-11-12T09:06:54.332Z,18.17
2018-11-12T09:09:22.553Z,18.97
2018-11-12T09:11:50.827Z,18.70
2018-11-12T09:14:19.087Z,20.53
2018-11-12T09:16:47.640Z,20.23
2018-11-12T09:19:16.551Z,21.27
2018-11-12T09:21:44.838Z,21.03
2018-11-12T09:24:13.156Z,20.37
2018-11-12T09:26:41.405Z,22.80
2018-11-12T09:29:10.147Z,20.17
2018-11-12T09:31:38.372Z,18.77
2018-11-12T09:34:06.646Z,20.13
2018-11-12T09:36:35.558Z,21.23
2018-11-12T09:39:04.912Z,19.67
2018-11-12T09:41:33.267Z,20.53
2018-11-12T09:44:01.515Z,19.23
2018-11-12T09:46:30.201Z,19.30
2018-11-12T09:48:58.470Z,19.83
2018-11-12T09:51:26.799Z,19.13
2018-11-12T09:53:55.198Z,18.77
2018-11-12T09:56:23.380Z,19.30
2018-11-12T09:58:52.032Z,19.30
2018-11-12T10:01:20.612Z,22.67
2018-11-12T10:03:50.085Z,19.47
2018-11-12T10:06:18.743Z,21.07
2018-11-12T10:08:48.075Z,20.83
2018-11-12T10:11:16.164Z,18.93
2018-11-12T10:13:44.980Z,20.43
2018-11-12T10:16:13.909Z,22.60
2018-11-12T10:18:40.000Z,23.50
2018-11-12T10:21:08.276Z,21.93
2018-11-12T10:23:36.547Z,19.80
2018-11-12T10:26:05.503Z,20.83
2018-11-12T10:28:34.096Z,20.40
2018-11-12T10:31:02.362Z,18.87
2018-11-12T10:33:30.596Z,19.27
2018-11-12T10:35:59.256Z,21.37
2018-11-12T10:38:27.856Z,22.33
2018-11-12T10:40:56.191Z,20.20
2018-11-12T10:43:24.348Z,19.20
2018-11-12T10:45:52.854Z,18.47
2018-11-12T10:48:21.753Z,21.17
2018-11-12T10:50:56.250Z,20.50
2018-11-12T10:53:18.211Z,19.93
2018-11-12T10:55:46.580Z,21.37
2018-11-12T10:58:14.791Z,20.27
2018-11-12T11:00:48.643Z,20.30
2018-11-12T11:03:22.749Z,20.27
2018-11-12T11:05:52.503Z,19.80
2018-11-12T11:08:20.949Z,19.00
2018-11-12T11:10:49.140Z,19.03
2018-11-12T11:13:17.475Z,20.03
2018-11-12T11:15:45.727Z,21.70
2018-11-12T11:18:14.413Z,19.80
2018-11-12T11:20:42.635Z,19.97
2018-11-12T11:23:10.831Z,19.33
2018-11-12T11:25:39.082Z,19.47
2018-11-12T11:28:07.888Z,19.80
2018-11-12T11:30:36.835Z,18.40
2018-11-12T11:33:05.073Z,19.93
2018-11-12T11:35:33.338Z,20.63
2018-11-12T11:38:02.001Z,21.77
2018-11-12T11:40:30.553Z,19.90
2018-11-12T11:42:59.392Z,19.97
2018-11-12T11:45:27.646Z,22.63
2018-11-12T11:47:55.890Z,22.37
2018-11-12T11:50:25.849Z,20.77
2018-11-12T11:52:54.035Z,22.70
2018-11-12T11:55:23.300Z,19.93
2018-11-12T11:57:52.146Z,22.90
2018-11-12T12:00:24.679Z,20.90
2018-11-12T12:05:29.034Z,24.17
2018-11-12T12:07:57.794Z,23.60
2018-11-12T12:10:26.050Z,23.80
2018-11-12T12:12:54.330Z,27.67
2018-11-12T12:15:23.335Z,24.53
2018-11-12T12:17:52.264Z,25.70
2018-11-12T12:20:21.812Z,26.17
2018-11-12T12:22:50.090Z,26.43
2018-11-12T12:25:19.567Z,27.73
2018-11-12T12:27:48.094Z,26.30
2018-11-12T12:30:26.200Z,26.77
2018-11-12T12:32:55.283Z,26.77
2018-11-12T12:35:23.956Z,26.40
2018-11-12T12:37:52.856Z,25.30
2018-11-12T12:40:22.173Z,24.57
2018-11-12T12:42:50.396Z,27.63
2018-11-12T12:45:23.663Z,26.07
2018-11-12T12:47:52.127Z,29.67
2018-11-12T12:50:20.695Z,29.17
2018-11-12T12:52:48.976Z,29.37
2018-11-12T12:55:17.694Z,29.90
2018-11-12T12:57:46.269Z,30.53
2018-11-12T13:00:16.747Z,28.87
2018-11-12T13:02:45.457Z,29.80
2018-11-12T13:05:13.931Z,31.67
2018-11-12T13:07:45.572Z,30.43
2018-11-12T13:10:15.211Z,28.87
2018-11-12T13:12:43.881Z,33.00
2018-11-12T13:15:14.134Z,32.00
2018-11-12T13:17:43.639Z,29.43
2018-11-12T13:20:13.190Z,29.87
2018-11-12T13:22:42.013Z,30.63
2018-11-12T13:25:10.544Z,28.70
2018-11-12T13:27:38.922Z,31.93
2018-11-12T13:30:09.829Z,30.80
2018-11-12T13:32:38.995Z,32.00
2018-11-12T13:35:08.463Z,33.40
2018-11-12T13:37:37.309Z,34.43
2018-11-12T13:40:09.560Z,35.63
2018-11-12T13:42:37.836Z,31.73
2018-11-12T13:45:06.691Z,35.57
2018-11-12T13:47:34.975Z,33.97
2018-11-12T13:50:03.410Z,35.87
2018-11-12T13:52:31.653Z,33.63
2018-11-12T13:54:59.926Z,34.73
2018-11-12T13:57:28.351Z,35.77
2018-11-12T13:59:56.638Z,31.63
2018-11-12T14:02:25.255Z,34.00
2018-11-12T14:04:54.054Z,30.97
2018-11-12T14:07:22.315Z,32.10
2018-11-12T14:09:50.931Z,32.50
2018-11-12T14:12:19.208Z,31.70
2018-11-12T14:14:47.462Z,28.90
2018-11-12T14:17:16.217Z,28.33
2018-11-12T14:19:44.474Z,27.43
2018-11-12T14:22:12.694Z,27.50
2018-11-12T14:24:40.898Z,28.83
2018-11-12T14:27:09.794Z,30.00
2018-11-12T14:29:38.008Z,29.13
2018-11-12T14:32:06.284Z,30.20
2018-11-12T14:34:35.376Z,29.53
2018-11-12T14:37:04.090Z,28.13
2018-11-12T14:39:32.383Z,27.60
2018-11-12T14:42:00.640Z,28.80
2018-11-12T14:44:28.980Z,25.70
2018-11-12T14:46:57.212Z,26.87
2018-11-12T14:49:25.579Z,25.53
2018-11-12T14:51:53.849Z,26.03
2018-11-12T14:54:22.077Z,25.67
2018-11-12T14:56:50.451Z,24.90
2018-11-12T14:59:18.850Z,24.90
2018-11-12T15:01:48.165Z,22.17
2018-11-12T15:04:17.135Z,24.17
2018-11-12T15:06:45.797Z,24.63
2018-11-12T15:09:14.045Z,25.00
2018-11-12T15:11:42.303Z,25.10
2018-11-12T15:14:10.954Z,24.30
2018-11-12T15:16:39.876Z,26.57
2018-11-12T15:19:09.191Z,26.60
2018-11-12T15:21:37.451Z,24.87
2018-11-12T15:24:06.343Z,24.70
2018-11-12T15:26:35.229Z,28.80
2018-11-12T15:29:03.476Z,25.37
2018-11-12T15:31:31.735Z,25.43
2018-11-12T15:34:00.280Z,24.67
2018-11-12T15:36:29.334Z,26.03
2018-11-12T15:38:57.708Z,23.43
2018-11-12T15:41:25.960Z,24.80
2018-11-12T15:43:54.239Z,25.80
2018-11-12T15:46:22.515Z,26.30
2018-11-12T15:48:50.903Z,26.00
2018-11-12T15:51:19.221Z,26.83
2018-11-12T15:53:47.497Z,26.30
2018-11-12T15:56:15.773Z,29.17
2018-11-12T15:58:44.063Z,28.90
2018-11-12T16:01:12.390Z,30.07
2018-11-12T16:03:40.907Z,27.63
2018-11-12T16:06:09.971Z,30.17
2018-11-12T16:08:38.075Z,29.03
2018-11-12T16:11:06.352Z,32.63
2018-11-12T16:13:35.208Z,32.67
2018-11-12T16:16:03.427Z,29.47
2018-11-12T16:18:31.966Z,28.37
2018-11-12T16:21:00.224Z,27.40
2018-11-12T16:23:28.607Z,25.43
2018-11-12T16:25:57.365Z,25.63
2018-11-12T16:28:25.659Z,25.93
2018-11-12T16:30:53.944Z,24.73
2018-11-12T16:33:22.219Z,26.40
2018-11-12T16:35:50.495Z,27.77
2018-11-12T16:38:19.184Z,29.07
2018-11-12T16:40:47.474Z,26.73
2018-11-12T16:43:15.827Z,27.30
2018-11-12T16:45:44.205Z,29.20
2018-11-12T16:48:12.547Z,30.30
2018-11-12T16:50:40.888Z,26.23
2018-11-12T16:53:09.210Z,27.33
2018-11-12T16:55:37.525Z,27.63
2018-11-12T16:58:05.823Z,27.33
2018-11-12T17:00:34.602Z,26.03
2018-11-12T17:03:06.465Z,26.43
2018-11-12T17:05:35.392Z,26.70
2018-11-12T17:08:03.794Z,26.50
2018-11-12T17:10:32.299Z,27.87
2018-11-12T17:13:00.823Z,26.20
2018-11-12T17:15:29.079Z,29.07
2018-11-12T17:17:58.214Z,29.03
2018-11-12T17:20:26.692Z,29.67
2018-11-12T17:22:55.256Z,29.20
2018-11-12T17:25:24.263Z,28.17
2018-11-12T17:27:53.013Z,30.07
2018-11-12T17:30:22.667Z,29.00
2018-11-12T17:32:51.302Z,27.30
2018-11-12T17:35:20.488Z,25.77
2018-11-12T17:37:49.425Z,23.80
2018-11-12T17:40:20.555Z,26.03
2018-11-12T17:42:49.360Z,25.07
2018-11-12T17:45:19.340Z,27.70
2018-11-12T17:47:48.719Z,28.00
2018-11-12T17:50:17.094Z,29.53
2018-11-12T17:52:45.936Z,28.20
2018-11-12T17:55:14.278Z,27.73
2018-11-12T17:57:42.520Z,26.30
2018-11-12T18:00:16.375Z,28.63
2018-11-12T18:02:45.622Z,33.97
2018-11-12T18:05:14.185Z,25.90
2018-11-12T18:07:42.948Z,28.67
2018-11-12T18:10:11.925Z,27.17
2018-11-12T18:12:40.844Z,30.30
2018-11-12T18:15:12.335Z,29.77
2018-11-12T18:17:40.913Z,27.60
2018-11-12T18:20:13.411Z,27.20
2018-11-12T18:22:41.689Z,29.07
2018-11-12T18:25:10.382Z,28.07
2018-11-12T18:27:38.868Z,27.73
2018-11-12T18:30:17.739Z,60.93
2018-11-12T18:32:47.172Z,34.03
2018-11-12T18:35:15.531Z,35.40
2018-11-12T18:37:44.340Z,31.03
2018-11-12T18:40:14.404Z,30.73
2018-11-12T18:42:42.683Z,28.80
2018-11-12T18:45:13.494Z,25.03
2018-11-12T18:47:41.991Z,26.20
2018-11-12T18:50:12.520Z,24.37
2018-11-12T18:52:40.880Z,27.33
2018-11-12T18:55:09.555Z,24.60
2018-11-12T18:57:38.199Z,27.13
2018-11-12T19:00:08.360Z,26.90
2018-11-12T19:02:36.954Z,26.63
2018-11-12T19:05:09.331Z,28.63
2018-11-12T19:07:38.395Z,27.23
2018-11-12T19:10:10.715Z,29.13
2018-11-12T19:12:39.096Z,29.27
2018-11-12T19:15:09.981Z,30.73
2018-11-12T19:17:40.334Z,30.03
2018-11-12T19:20:09.332Z,27.90
2018-11-12T19:22:37.695Z,26.23
2018-11-12T19:25:07.696Z,28.53
2018-11-12T19:27:36.299Z,28.97
2018-11-12T19:30:07.564Z,30.60
2018-11-12T19:32:35.827Z,27.13
2018-11-12T19:35:04.206Z,28.47
2018-11-12T19:37:32.786Z,29.30
2018-11-12T19:40:01.084Z,27.70
2018-11-12T19:42:29.643Z,30.53
2018-11-12T19:44:57.977Z,29.07
2018-11-12T19:47:26.205Z,31.50
2018-11-12T19:49:54.760Z,28.13
2018-11-12T19:52:23.071Z,28.33
2018-11-12T19:54:51.967Z,29.40
2018-11-12T19:57:20.224Z,28.47
2018-11-12T19:59:48.474Z,29.67
2018-11-12T20:02:17.117Z,30.57
2018-11-12T20:04:45.811Z,31.33
2018-11-12T20:07:14.526Z,28.40
2018-11-12T20:09:42.927Z,30.93
2018-11-12T20:12:11.712Z,30.87
2018-11-12T20:14:39.979Z,30.73
2018-11-12T20:17:10.310Z,30.40
2018-11-12T20:19:38.960Z,34.33
2018-11-12T20:22:07.288Z,31.70
2018-11-12T20:24:35.528Z,31.73
2018-11-12T20:27:03.835Z,30.60
2018-11-12T20:29:32.095Z,35.60
2018-11-12T20:32:00.419Z,28.27
2018-11-12T20:34:28.716Z,29.30
2018-11-12T20:36:57.603Z,29.43
2018-11-12T20:39:26.072Z,28.40
2018-11-12T20:41:54.342Z,33.03
2018-11-12T20:44:22.635Z,30.97
2018-11-12T20:46:51.219Z,30.80
2018-11-12T20:49:19.652Z,26.70
2018-11-12T20:51:47.943Z,28.53
2018-11-12T20:54:16.203Z,28.27
2018-11-12T20:56:44.478Z,28.40
2018-11-12T20:59:12.830Z,27.83
2018-11-12T21:01:42.731Z,30.53
2018-11-12T21:04:11.739Z,27.13
2018-11-12T21:06:40.636Z,27.47
2018-11-12T21:09:10.931Z,29.77
2018-11-12T21:11:39.219Z,31.80
2018-11-12T21:14:07.754Z,29.07
2018-11-12T21:16:36.855Z,27.13
2018-11-12T21:19:06.284Z,28.63
2018-11-12T21:21:34.603Z,27.57
2018-11-12T21:24:02.988Z,26.37
2018-11-12T21:26:31.347Z,28.60
2018-11-12T21:28:59.838Z,26.83
2018-11-12T21:31:28.210Z,24.73
2018-11-12T21:33:56.585Z,24.13
2018-11-12T21:36:26.144Z,26.63
2018-11-12T21:38:54.532Z,26.13
2018-11-12T21:41:23.362Z,25.10
2018-11-12T21:43:51.815Z,24.23
2018-11-12T21:46:20.018Z,24.90
2018-11-12T21:48:48.722Z,24.40
2018-11-12T21:51:16.972Z,23.23
2018-11-12T21:58:30.870Z,24.67
2018-11-12T22:00:59.151Z,25.40
2018-11-12T22:03:28.185Z,23.77
2018-11-12T22:05:57.529Z,25.37
2018-11-12T22:08:25.897Z,27.87
2018-11-12T22:10:54.454Z,28.80
2018-11-12T22:13:23.067Z,25.40
2018-11-12T22:15:51.625Z,26.20
2018-11-12T22:18:21.146Z,23.50
2018-11-12T22:20:49.491Z,25.73
2018-11-12T22:23:17.799Z,23.23
2018-11-12T22:25:46.141Z,23.20
2018-11-12T22:28:15.260Z,23.93
2018-11-12T22:30:43.548Z,25.03
2018-11-12T22:33:12.441Z,24.93
2018-11-12T22:35:40.745Z,26.03
2018-11-12T22:38:09.563Z,21.97
2018-11-12T22:40:37.925Z,29.30
2018-11-12T22:43:06.168Z,24.13
2018-11-12T22:45:34.752Z,24.07
2018-11-12T22:48:03.060Z,19.80
2018-11-12T22:50:32.253Z,23.43
2018-11-12T22:53:00.758Z,21.83
2018-11-12T22:55:29.111Z,21.40
2018-11-12T22:57:57.699Z,22.07
2018-11-12T23:00:35.732Z,21.27
2018-11-12T23:03:05.200Z,21.33
2018-11-12T23:05:34.070Z,21.23
2018-11-12T23:08:02.466Z,19.60
2018-11-12T23:10:30.888Z,21.47
2018-11-12T23:12:59.267Z,22.87
2018-11-12T23:15:27.653Z,20.50
2018-11-12T23:17:56.367Z,18.90
2018-11-12T23:20:25.653Z,20.07
2018-11-12T23:22:54.714Z,23.17
2018-11-12T23:25:23.126Z,19.53
2018-11-12T23:27:51.828Z,21.07
2018-11-12T23:30:21.539Z,19.37
2018-11-12T23:32:49.761Z,20.83
2018-11-12T23:35:22.151Z,19.90
2018-11-12T23:37:51.359Z,20.70
2018-11-12T23:40:19.940Z,19.40
2018-11-12T23:42:48.329Z,21.53
2018-11-12T23:45:16.969Z,19.27
2018-11-12T23:47:45.180Z,19.37
2018-11-12T23:50:15.584Z,20.10
2018-11-12T23:52:44.498Z,20.37
2018-11-12T23:55:13.612Z,18.80
2018-11-12T23:57:42.195Z,17.63
